createdAt,value
2024-04-23T00:00:16.546Z,0.82
2024-04-23T00:01:16.614Z,0.81
2024-04-23T00:02:16.522Z,0.81
2024-04-23T00:03:16.571Z,0.80
2024-04-23T00:04:16.600Z,0.79
2024-04-23T00:05:16.518Z,0.79
2024-04-23T00:06:16.515Z,0.79
2024-04-23T00:07:16.469Z,0.79
2024-04-23T00:08:16.450Z,0.78
2024-04-23T00:09:16.436Z,0.78
2024-04-23T00:10:16.420Z,0.77
2024-04-23T00:11:16.595Z,0.77
2024-04-23T00:12:16.422Z,0.77
2024-04-23T00:13:16.382Z,0.77
2024-04-23T00:14:16.370Z,0.77
2024-04-23T00:15:16.361Z,0.77
2024-04-23T00:16:16.361Z,0.77
2024-04-23T00:17:16.326Z,0.77
2024-04-23T00:18:16.403Z,0.77
2024-04-23T00:19:16.302Z,0.77
2024-04-23T00:20:16.314Z,0.77
2024-04-23T00:21:16.291Z,0.77
2024-04-23T00:22:16.284Z,0.77
2024-04-23T00:23:16.291Z,0.76
2024-04-23T00:24:16.238Z,0.76
2024-04-23T00:25:16.241Z,0.76
2024-04-23T00:26:16.219Z,0.77
2024-04-23T00:27:16.207Z,0.79
2024-04-23T00:28:16.184Z,0.80
2024-04-23T00:29:16.203Z,0.81
2024-04-23T00:30:16.190Z,0.81
2024-04-23T00:31:16.150Z,0.81
2024-04-23T00:32:16.169Z,0.80
2024-04-23T00:33:16.233Z,0.79
2024-04-23T00:34:16.124Z,0.79
2024-04-23T00:35:16.263Z,0.79
2024-04-23T00:36:16.085Z,0.78
2024-04-23T00:37:16.080Z,0.78
2024-04-23T00:38:16.080Z,0.77
2024-04-23T00:39:16.166Z,0.77
2024-04-23T00:40:16.083Z,0.76
2024-04-23T00:41:16.024Z,0.76
2024-04-23T00:42:16.011Z,0.76
2024-04-23T00:43:16.010Z,0.75
2024-04-23T00:44:15.988Z,0.75
2024-04-23T00:45:15.982Z,0.75
2024-04-23T00:46:15.996Z,0.74
2024-04-23T00:47:15.965Z,0.74
2024-04-23T00:48:16.007Z,0.73
2024-04-23T00:49:15.932Z,0.73
2024-04-23T00:50:15.914Z,0.72
2024-04-23T00:51:15.907Z,0.71
2024-04-23T00:52:15.915Z,0.70
2024-04-23T00:53:15.875Z,0.69
2024-04-23T00:54:15.882Z,0.69
2024-04-23T00:55:15.873Z,0.68
2024-04-23T00:56:15.844Z,0.67
2024-04-23T00:57:15.853Z,0.67
2024-04-23T00:58:15.803Z,0.66
2024-04-23T00:59:15.801Z,0.66
2024-04-23T01:00:15.779Z,0.66
2024-04-23T01:01:15.792Z,0.66
2024-04-23T01:02:15.764Z,0.65
2024-04-23T01:03:15.878Z,0.64
2024-04-23T01:04:15.746Z,0.63
2024-04-23T01:05:15.773Z,0.63
2024-04-23T01:06:15.708Z,0.62
2024-04-23T01:07:15.710Z,0.62
2024-04-23T01:08:15.676Z,0.61
2024-04-23T01:09:15.710Z,0.61
2024-04-23T01:10:15.659Z,0.60
2024-04-23T01:11:15.682Z,0.60
2024-04-23T01:12:15.671Z,0.60
2024-04-23T01:13:15.623Z,0.59
2024-04-23T01:14:15.617Z,0.59
2024-04-23T01:15:15.633Z,0.58
2024-04-23T01:16:15.591Z,0.57
2024-04-23T01:17:15.646Z,0.57
2024-04-23T01:18:15.625Z,0.55
2024-04-23T01:19:15.560Z,0.54
2024-04-23T01:20:15.527Z,0.53
2024-04-23T01:21:15.547Z,0.53
2024-04-23T01:22:15.499Z,0.52
2024-04-23T01:23:15.494Z,0.52
2024-04-23T01:24:15.480Z,0.51
2024-04-23T01:25:15.484Z,0.50
2024-04-23T01:26:15.451Z,0.49
2024-04-23T01:27:15.467Z,0.48
2024-04-23T01:28:15.460Z,0.47
2024-04-23T01:29:15.414Z,0.47
2024-04-23T01:30:15.424Z,0.46
2024-04-23T01:31:15.403Z,0.45
2024-04-23T01:32:15.409Z,0.44
2024-04-23T01:33:15.428Z,0.44
2024-04-23T01:34:15.356Z,0.44
2024-04-23T01:35:15.348Z,0.43
2024-04-23T01:36:15.352Z,0.43
2024-04-23T01:37:15.320Z,0.42
2024-04-23T01:38:15.342Z,0.41
2024-04-23T01:39:15.297Z,0.41
2024-04-23T01:40:15.274Z,0.40
2024-04-23T01:41:15.273Z,0.40
2024-04-23T01:42:15.248Z,0.39
2024-04-23T01:43:15.241Z,0.38
2024-04-23T01:44:15.238Z,0.37
2024-04-23T01:45:15.231Z,0.37
2024-04-23T01:46:15.203Z,0.36
2024-04-23T01:47:15.314Z,0.35
2024-04-23T01:48:15.247Z,0.35
2024-04-23T01:49:15.202Z,0.34
2024-04-23T01:50:15.145Z,0.33
2024-04-23T01:51:15.140Z,0.32
2024-04-23T01:52:15.142Z,0.31
2024-04-23T01:53:15.107Z,0.30
2024-04-23T01:54:15.098Z,0.29
2024-04-23T01:55:15.112Z,0.29
2024-04-23T01:56:15.076Z,0.28
2024-04-23T01:57:15.071Z,0.27
2024-04-23T01:58:15.043Z,0.26
2024-04-23T01:59:15.028Z,0.24
2024-04-23T02:00:15.027Z,0.23
2024-04-23T02:01:15.087Z,0.21
2024-04-23T02:02:15.027Z,0.20
2024-04-23T02:03:15.018Z,0.19
2024-04-23T02:04:14.982Z,0.18
2024-04-23T02:05:14.962Z,0.16
2024-04-23T02:06:14.947Z,0.15
2024-04-23T02:07:14.961Z,0.14
2024-04-23T02:08:14.925Z,0.13
2024-04-23T02:09:14.906Z,0.12
2024-04-23T02:10:14.923Z,0.11
2024-04-23T02:11:14.989Z,0.11
2024-04-23T02:12:14.894Z,0.10
2024-04-23T02:13:14.889Z,0.10
2024-04-23T02:14:14.868Z,0.09
2024-04-23T02:15:14.842Z,0.09
2024-04-23T02:16:14.823Z,0.08
2024-04-23T02:17:14.866Z,0.07
2024-04-23T02:18:14.871Z,0.06
2024-04-23T02:19:14.791Z,0.05
2024-04-23T02:20:14.773Z,0.04
2024-04-23T02:21:14.766Z,0.03
2024-04-23T02:22:14.758Z,0.01
2024-04-23T02:23:14.732Z,-0.00
2024-04-23T02:24:14.748Z,-0.01
2024-04-23T02:25:14.725Z,-0.03
2024-04-23T02:26:14.689Z,-0.04
2024-04-23T02:27:14.700Z,-0.05
2024-04-23T02:28:14.701Z,-0.06
2024-04-23T02:29:14.668Z,-0.08
2024-04-23T02:30:14.662Z,-0.09
2024-04-23T02:31:14.627Z,-0.11
2024-04-23T02:32:14.676Z,-0.12
2024-04-23T02:33:14.684Z,-0.13
2024-04-23T02:34:14.600Z,-0.14
2024-04-23T02:35:14.586Z,-0.16
2024-04-23T02:36:14.585Z,-0.16
2024-04-23T02:37:14.566Z,-0.17
2024-04-23T02:38:14.556Z,-0.18
2024-04-23T02:39:14.543Z,-0.19
2024-04-23T02:40:14.521Z,-0.20
2024-04-23T02:41:14.534Z,-0.21
2024-04-23T02:42:14.494Z,-0.21
2024-04-23T02:43:14.480Z,-0.21
2024-04-23T02:44:14.472Z,-0.21
2024-04-23T02:45:14.454Z,-0.21
2024-04-23T02:46:14.436Z,-0.21
2024-04-23T02:47:14.487Z,-0.20
2024-04-23T02:48:14.519Z,-0.21
2024-04-23T02:49:14.408Z,-0.21
2024-04-23T02:50:14.414Z,-0.21
2024-04-23T02:51:14.387Z,-0.21
2024-04-23T02:52:14.371Z,-0.21
2024-04-23T02:53:14.419Z,-0.21
2024-04-23T02:54:14.341Z,-0.22
2024-04-23T02:55:14.396Z,-0.22
2024-04-23T02:56:14.323Z,-0.23
2024-04-23T02:57:14.321Z,-0.24
2024-04-23T02:58:14.314Z,-0.26
2024-04-23T02:59:14.294Z,-0.26
2024-04-23T03:00:14.264Z,-0.28
2024-04-23T03:01:14.254Z,-0.29
2024-04-23T03:02:14.403Z,-0.30
2024-04-23T03:03:14.317Z,-0.31
2024-04-23T03:04:14.250Z,-0.32
2024-04-23T03:05:14.233Z,-0.34
2024-04-23T03:06:14.202Z,-0.35
2024-04-23T03:07:14.179Z,-0.36
2024-04-23T03:08:14.177Z,-0.37
2024-04-23T03:09:14.165Z,-0.38
2024-04-23T03:10:14.168Z,-0.38
2024-04-23T03:11:14.276Z,-0.38
2024-04-23T03:12:14.113Z,-0.39
2024-04-23T03:13:14.108Z,-0.40
2024-04-23T03:14:14.095Z,-0.41
2024-04-23T03:15:14.113Z,-0.41
2024-04-23T03:16:14.077Z,-0.42
2024-04-23T03:17:14.063Z,-0.42
2024-04-23T03:18:14.133Z,-0.42
2024-04-23T03:19:14.040Z,-0.42
2024-04-23T03:20:14.024Z,-0.42
2024-04-23T03:21:14.037Z,-0.42
2024-04-23T03:22:14.000Z,-0.41
2024-04-23T03:23:13.972Z,-0.41
2024-04-23T03:24:13.967Z,-0.41
2024-04-23T03:25:13.968Z,-0.41
2024-04-23T03:26:13.939Z,-0.42
2024-04-23T03:27:13.954Z,-0.42
2024-04-23T03:28:13.908Z,-0.43
2024-04-23T03:29:13.912Z,-0.43
2024-04-23T03:30:13.894Z,-0.42
2024-04-23T03:31:13.887Z,-0.42
2024-04-23T03:32:13.958Z,-0.42
2024-04-23T03:33:13.932Z,-0.42
2024-04-23T03:34:13.845Z,-0.41
2024-04-23T03:35:13.841Z,-0.40
2024-04-23T03:36:17.328Z,-0.39
2024-04-23T03:37:13.829Z,-0.39
2024-04-23T03:38:13.806Z,-0.40
2024-04-23T03:39:13.925Z,-0.41
2024-04-23T03:40:13.768Z,-0.40
2024-04-23T03:41:13.772Z,-0.39
2024-04-23T03:42:13.733Z,-0.39
2024-04-23T03:43:13.730Z,-0.39
2024-04-23T03:44:13.723Z,-0.39
2024-04-23T03:45:13.715Z,-0.39
2024-04-23T03:46:13.692Z,-0.39
2024-04-23T03:47:13.712Z,-0.38
2024-04-23T03:48:13.735Z,-0.38
2024-04-23T03:49:13.683Z,-0.38
2024-04-23T03:50:13.654Z,-0.38
2024-04-23T03:51:13.623Z,-0.37
2024-04-23T03:52:13.613Z,-0.37
2024-04-23T03:53:13.593Z,-0.38
2024-04-23T03:54:13.608Z,-0.38
2024-04-23T03:55:13.641Z,-0.37
2024-04-23T03:56:13.582Z,-0.37
2024-04-23T03:57:13.575Z,-0.36
2024-04-23T03:58:13.540Z,-0.35
2024-04-23T03:59:13.528Z,-0.35
2024-04-23T04:00:13.512Z,-0.35
2024-04-23T04:01:13.554Z,-0.36
2024-04-23T04:02:13.592Z,-0.36
2024-04-23T04:03:13.525Z,-0.36
2024-04-23T04:04:13.459Z,-0.36
2024-04-23T04:05:13.466Z,-0.35
2024-04-23T04:06:13.571Z,-0.36
2024-04-23T04:07:13.430Z,-0.36
2024-04-23T04:08:13.443Z,-0.36
2024-04-23T04:09:13.454Z,-0.36
2024-04-23T04:10:13.417Z,-0.37
2024-04-23T04:11:13.531Z,-0.38
2024-04-23T04:12:13.425Z,-0.38
2024-04-23T04:13:21.300Z,-0.39
2024-04-23T04:14:13.343Z,-0.41
2024-04-23T04:15:13.334Z,-0.42
2024-04-23T04:16:13.325Z,-0.43
2024-04-23T04:17:13.412Z,-0.44
2024-04-23T04:18:13.380Z,-0.44
2024-04-23T04:19:13.287Z,-0.45
2024-04-23T04:20:13.301Z,-0.46
2024-04-23T04:21:13.263Z,-0.47
2024-04-23T04:22:13.255Z,-0.47
2024-04-23T04:23:13.257Z,-0.47
2024-04-23T04:24:13.213Z,-0.47
2024-04-23T04:25:13.207Z,-0.47
2024-04-23T04:26:13.327Z,-0.47
2024-04-23T04:27:13.194Z,-0.46
2024-04-23T04:28:13.174Z,-0.46
2024-04-23T04:29:13.165Z,-0.45
2024-04-23T04:30:13.160Z,-0.44
2024-04-23T04:31:13.125Z,-0.43
2024-04-23T04:32:13.178Z,-0.42
2024-04-23T04:33:13.186Z,-0.40
2024-04-23T04:34:13.116Z,-0.39
2024-04-23T04:35:13.075Z,-0.39
2024-04-23T04:36:13.073Z,-0.39
2024-04-23T04:37:13.050Z,-0.39
2024-04-23T04:38:13.032Z,-0.39
2024-04-23T04:39:13.088Z,-0.40
2024-04-23T04:40:13.037Z,-0.40
2024-04-23T04:41:13.015Z,-0.42
2024-04-23T04:42:12.986Z,-0.42
2024-04-23T04:43:12.987Z,-0.42
2024-04-23T04:44:13.017Z,-0.42
2024-04-23T04:45:12.948Z,-0.41
2024-04-23T04:46:12.966Z,-0.40
2024-04-23T04:47:12.967Z,-0.40
2024-04-23T04:48:13.140Z,-0.40
2024-04-23T04:49:12.965Z,-0.41
2024-04-23T04:50:12.909Z,-0.41
2024-04-23T04:51:12.919Z,-0.43
2024-04-23T04:52:12.881Z,-0.45
2024-04-23T04:53:12.863Z,-0.46
2024-04-23T04:54:12.873Z,-0.47
2024-04-23T04:55:12.826Z,-0.48
2024-04-23T04:56:12.804Z,-0.49
2024-04-23T04:57:12.819Z,-0.49
2024-04-23T04:58:12.815Z,-0.49
2024-04-23T04:59:12.768Z,-0.49
2024-04-23T05:00:12.755Z,-0.48
2024-04-23T05:01:12.777Z,-0.48
2024-04-23T05:02:12.866Z,-0.48
2024-04-23T05:03:12.728Z,-0.49
2024-04-23T05:04:12.745Z,-0.49
2024-04-23T05:05:12.692Z,-0.48
2024-04-23T05:06:12.726Z,-0.48
2024-04-23T05:07:12.683Z,-0.47
2024-04-23T05:08:12.732Z,-0.47
2024-04-23T05:09:12.644Z,-0.47
2024-04-23T05:10:12.624Z,-0.47
2024-04-23T05:11:12.615Z,-0.47
2024-04-23T05:12:14.308Z,-0.47
2024-04-23T05:13:12.603Z,-0.47
2024-04-23T05:14:12.606Z,-0.47
2024-04-23T05:15:12.567Z,-0.48
2024-04-23T05:16:12.583Z,-0.49
2024-04-23T05:17:12.614Z,-0.49
2024-04-23T05:18:12.640Z,-0.50
2024-04-23T05:19:12.523Z,-0.51
2024-04-23T05:20:12.539Z,-0.52
2024-04-23T05:21:12.505Z,-0.51
2024-04-23T05:22:12.509Z,-0.51
2024-04-23T05:23:12.494Z,-0.52
2024-04-23T05:24:12.459Z,-0.55
2024-04-23T05:25:12.489Z,-0.57
2024-04-23T05:26:12.440Z,-0.59
2024-04-23T05:27:12.414Z,-0.60
2024-04-23T05:28:12.443Z,-0.61
2024-04-23T05:29:12.412Z,-0.62
2024-04-23T05:30:12.395Z,-0.62
2024-04-23T05:31:12.407Z,-0.62
2024-04-23T05:32:12.498Z,-0.62
2024-04-23T05:33:12.402Z,-0.61
2024-04-23T05:34:12.356Z,-0.63
2024-04-23T05:35:12.373Z,-0.65
2024-04-23T05:36:12.326Z,-0.66
2024-04-23T05:37:12.327Z,-0.67
2024-04-23T05:38:13.937Z,-0.68
2024-04-23T05:39:12.273Z,-0.71
2024-04-23T05:40:12.263Z,-0.75
2024-04-23T05:41:12.263Z,-0.78
2024-04-23T05:42:12.233Z,-0.79
2024-04-23T05:43:12.261Z,-0.81
2024-04-23T05:44:12.242Z,-0.83
2024-04-23T05:45:12.232Z,-0.85
2024-04-23T05:46:12.178Z,-0.86
2024-04-23T05:47:12.369Z,-0.87
2024-04-23T05:48:12.238Z,-0.86
2024-04-23T05:49:12.154Z,-0.84
2024-04-23T05:50:12.177Z,-0.82
2024-04-23T05:51:12.112Z,-0.80
2024-04-23T05:52:19.808Z,-0.78
2024-04-23T05:53:12.122Z,-0.76
2024-04-23T05:54:12.090Z,-0.72
2024-04-23T05:55:12.069Z,-0.67
2024-04-23T05:56:12.113Z,-0.62
2024-04-23T05:57:12.066Z,-0.59
2024-04-23T05:58:12.033Z,-0.57
2024-04-23T05:59:12.081Z,-0.57
2024-04-23T06:00:12.002Z,-0.56
2024-04-23T06:01:12.033Z,-0.56
2024-04-23T06:02:11.992Z,-0.54
2024-04-23T06:03:11.980Z,-0.51
2024-04-23T06:04:12.010Z,-0.49
2024-04-23T06:05:11.985Z,-0.47
2024-04-23T06:06:11.946Z,-0.45
2024-04-23T06:07:11.919Z,-0.47
2024-04-23T06:08:12.016Z,-0.51
2024-04-23T06:09:11.891Z,-0.55
2024-04-23T06:10:11.907Z,-0.58
2024-04-23T06:11:12.119Z,-0.61
2024-04-23T06:12:11.847Z,-0.65
2024-04-23T06:13:11.843Z,-0.68
2024-04-23T06:14:11.852Z,-0.68
2024-04-23T06:15:11.843Z,-0.67
2024-04-23T06:16:11.825Z,-0.66
2024-04-23T06:17:11.797Z,-0.66
2024-04-23T06:18:11.828Z,-0.65
2024-04-23T06:19:11.785Z,-0.62
2024-04-23T06:20:11.764Z,-0.59
2024-04-23T06:21:11.796Z,-0.56
2024-04-23T06:22:11.817Z,-0.56
2024-04-23T06:23:11.807Z,-0.56
2024-04-23T06:24:11.708Z,-0.57
2024-04-23T06:25:11.754Z,-0.60
2024-04-23T06:26:11.708Z,-0.62
2024-04-23T06:27:11.687Z,-0.61
2024-04-23T06:28:11.660Z,-0.61
2024-04-23T06:29:11.654Z,-0.62
2024-04-23T06:30:11.638Z,-0.63
2024-04-23T06:31:11.626Z,-0.63
2024-04-23T06:32:11.639Z,-0.64
2024-04-23T06:33:11.736Z,-0.63
2024-04-23T06:34:11.575Z,-0.63
2024-04-23T06:35:11.604Z,-0.63
2024-04-23T06:36:11.554Z,-0.63
2024-04-23T06:37:11.533Z,-0.63
2024-04-23T06:38:11.600Z,-0.63
2024-04-23T06:39:11.513Z,-0.63
2024-04-23T06:40:11.505Z,-0.63
2024-04-23T06:41:11.494Z,-0.63
2024-04-23T06:42:11.471Z,-0.63
2024-04-23T06:43:14.193Z,-0.63
2024-04-23T06:44:11.490Z,-0.62
2024-04-23T06:45:11.421Z,-0.60
2024-04-23T06:46:11.432Z,-0.57
2024-04-23T06:47:11.420Z,-0.54
2024-04-23T06:48:11.459Z,-0.52
2024-04-23T06:49:11.390Z,-0.48
2024-04-23T06:50:11.437Z,-0.44
2024-04-23T06:51:11.376Z,-0.41
2024-04-23T06:52:11.351Z,-0.39
2024-04-23T06:53:11.380Z,-0.36
2024-04-23T06:54:11.354Z,-0.33
2024-04-23T06:55:11.364Z,-0.30
2024-04-23T06:56:11.362Z,-0.28
2024-04-23T06:57:11.309Z,-0.26
2024-04-23T06:58:11.274Z,-0.25
2024-04-23T06:59:11.274Z,-0.25
2024-04-23T07:00:11.250Z,-0.23
2024-04-23T07:01:11.304Z,-0.23
2024-04-23T07:02:11.282Z,-0.24
2024-04-23T07:03:11.198Z,-0.23
2024-04-23T07:04:11.196Z,-0.20
2024-04-23T07:05:11.335Z,-0.19
2024-04-23T07:06:11.166Z,-0.19
2024-04-23T07:07:11.185Z,-0.18
2024-04-23T07:08:11.148Z,-0.15
2024-04-23T07:09:11.144Z,-0.12
2024-04-23T07:10:11.129Z,-0.11
2024-04-23T07:11:11.242Z,-0.10
2024-04-23T07:12:11.129Z,-0.06
2024-04-23T07:13:11.066Z,-0.02
2024-04-23T07:14:11.111Z,0.02
2024-04-23T07:15:11.058Z,0.04
2024-04-23T07:16:11.058Z,0.07
2024-04-23T07:17:11.147Z,0.12
2024-04-23T07:18:11.127Z,0.15
2024-04-23T07:19:11.055Z,0.18
2024-04-23T07:20:11.022Z,0.21
2024-04-23T07:21:11.029Z,0.24
2024-04-23T07:22:10.971Z,0.24
2024-04-23T07:23:11.045Z,0.23
2024-04-23T07:24:10.993Z,0.25
2024-04-23T07:25:10.928Z,0.26
2024-04-23T07:26:10.960Z,0.28
2024-04-23T07:27:10.915Z,0.32
2024-04-23T07:28:10.900Z,0.39
2024-04-23T07:29:10.947Z,0.45
2024-04-23T07:30:10.913Z,0.51
2024-04-23T07:31:10.840Z,0.55
2024-04-23T07:32:11.064Z,0.58
2024-04-23T07:33:10.920Z,0.61
2024-04-23T07:34:10.810Z,0.63
2024-04-23T07:35:10.883Z,0.63
2024-04-23T07:36:10.837Z,0.62
2024-04-23T07:37:10.798Z,0.61
2024-04-23T07:38:10.894Z,0.60
2024-04-23T07:39:10.746Z,0.62
2024-04-23T07:40:10.727Z,0.65
2024-04-23T07:41:10.758Z,0.67
2024-04-23T07:42:10.759Z,0.69
2024-04-23T07:43:10.766Z,0.70
2024-04-23T07:44:10.819Z,0.70
2024-04-23T07:45:10.658Z,0.69
2024-04-23T07:46:10.653Z,0.67
2024-04-23T07:47:10.766Z,0.67
2024-04-23T07:48:10.750Z,0.69
2024-04-23T07:49:10.610Z,0.76
2024-04-23T07:50:10.696Z,0.84
2024-04-23T07:51:10.614Z,0.91
2024-04-23T07:52:10.583Z,0.97
2024-04-23T07:53:10.619Z,0.98
2024-04-23T07:54:10.548Z,0.97
2024-04-23T07:55:10.536Z,0.94
2024-04-23T07:56:10.606Z,0.93
2024-04-23T07:57:10.510Z,0.90
2024-04-23T07:58:10.514Z,0.88
2024-04-23T07:59:10.567Z,0.84
2024-04-23T08:00:10.458Z,0.80
2024-04-23T08:01:10.487Z,0.82
2024-04-23T08:02:10.529Z,0.88
2024-04-23T08:03:11.528Z,0.96
2024-04-23T08:04:10.529Z,1.03
2024-04-23T08:05:10.452Z,1.06
2024-04-23T08:06:10.394Z,1.07
2024-04-23T08:07:10.381Z,1.08
2024-04-23T08:08:10.389Z,1.09
2024-04-23T08:09:10.345Z,1.11
2024-04-23T08:10:10.383Z,1.17
2024-04-23T08:11:10.557Z,1.25
2024-04-23T08:12:10.473Z,1.34
2024-04-23T08:13:10.322Z,1.44
2024-04-23T08:14:10.338Z,1.55
2024-04-23T08:15:10.281Z,1.63
2024-04-23T08:16:10.285Z,1.62
2024-04-23T08:17:10.425Z,1.60
2024-04-23T08:18:10.418Z,1.60
2024-04-23T08:19:10.252Z,1.67
2024-04-23T08:20:10.214Z,1.77
2024-04-23T08:21:10.235Z,1.89
2024-04-23T08:22:10.185Z,1.97
2024-04-23T08:23:10.374Z,2.01
2024-04-23T08:24:10.153Z,2.03
2024-04-23T08:25:10.152Z,2.04
2024-04-23T08:26:10.381Z,2.00
2024-04-23T08:27:10.160Z,1.93
2024-04-23T08:28:10.102Z,1.89
2024-04-23T08:29:10.185Z,1.90
2024-04-23T08:30:10.084Z,1.96
2024-04-23T08:31:10.098Z,2.04
2024-04-23T08:32:10.068Z,2.09
2024-04-23T08:33:10.089Z,2.12
2024-04-23T08:34:10.044Z,2.13
2024-04-23T08:35:10.065Z,2.12
2024-04-23T08:36:10.002Z,2.14
2024-04-23T08:37:09.989Z,2.15
2024-04-23T08:38:10.025Z,2.12
2024-04-23T08:39:09.966Z,2.08
2024-04-23T08:40:09.958Z,2.10
2024-04-23T08:41:09.972Z,2.18
2024-04-23T08:42:09.931Z,2.26
2024-04-23T08:43:09.910Z,2.31
2024-04-23T08:44:10.005Z,2.28
2024-04-23T08:45:09.906Z,2.19
2024-04-23T08:46:09.891Z,2.13
2024-04-23T08:47:09.932Z,2.15
2024-04-23T08:48:09.949Z,2.23
2024-04-23T08:49:09.834Z,2.31
2024-04-23T08:50:09.870Z,2.39
2024-04-23T08:51:09.809Z,2.47
2024-04-23T08:52:09.794Z,2.53
2024-04-23T08:53:09.908Z,2.58
2024-04-23T08:54:09.787Z,2.64
2024-04-23T08:55:09.767Z,2.67
2024-04-23T08:56:09.803Z,2.70
2024-04-23T08:57:09.754Z,2.69
2024-04-23T08:58:09.736Z,2.66
2024-04-23T08:59:09.760Z,2.62
2024-04-23T09:00:09.693Z,2.55
2024-04-23T09:01:09.746Z,2.43
2024-04-23T09:02:09.729Z,2.28
2024-04-23T09:03:09.680Z,2.12
2024-04-23T09:04:09.765Z,2.00
2024-04-23T09:05:09.645Z,1.93
2024-04-23T09:06:09.616Z,1.87
2024-04-23T09:07:15.004Z,1.84
2024-04-23T09:08:09.726Z,1.82
2024-04-23T09:09:09.576Z,1.78
2024-04-23T09:10:09.612Z,1.79
2024-04-23T09:11:09.584Z,1.84
2024-04-23T09:12:09.560Z,1.91
2024-04-23T09:13:09.564Z,1.97
2024-04-23T09:14:09.589Z,1.98
2024-04-23T09:15:09.516Z,2.00
2024-04-23T09:16:09.501Z,2.02
2024-04-23T09:17:09.561Z,2.01
2024-04-23T09:18:09.598Z,1.98
2024-04-23T09:19:09.452Z,1.98
2024-04-23T09:20:09.488Z,1.97
2024-04-23T09:21:09.436Z,1.96
2024-04-23T09:22:09.812Z,1.95
2024-04-23T09:23:09.427Z,1.95
2024-04-23T09:24:09.471Z,1.98
2024-04-23T09:25:09.447Z,2.03
2024-04-23T09:26:09.717Z,2.11
2024-04-23T09:27:10.107Z,2.20
2024-04-23T09:28:09.378Z,2.27
2024-04-23T09:29:09.428Z,2.32
2024-04-23T09:30:09.401Z,2.37
2024-04-23T09:31:09.286Z,2.46
2024-04-23T09:32:09.529Z,2.59
2024-04-23T09:33:09.436Z,2.68
2024-04-23T09:34:09.272Z,2.70
2024-04-23T09:35:09.308Z,2.74
2024-04-23T09:36:09.309Z,2.79
2024-04-23T09:37:09.557Z,2.85
2024-04-23T09:38:09.638Z,2.94
2024-04-23T09:39:09.185Z,3.05
2024-04-23T09:40:09.172Z,3.18
2024-04-23T09:41:09.295Z,3.32
2024-04-23T09:42:09.196Z,3.42
2024-04-23T09:43:09.144Z,3.47
2024-04-23T09:44:09.199Z,3.47
2024-04-23T09:45:09.107Z,3.46
2024-04-23T09:46:10.964Z,3.45
2024-04-23T09:47:09.231Z,3.41
2024-04-23T09:48:09.295Z,3.40
2024-04-23T09:49:09.051Z,3.52
2024-04-23T09:50:09.139Z,3.70
2024-04-23T09:51:09.036Z,3.88
2024-04-23T09:52:09.029Z,4.04
2024-04-23T09:53:09.194Z,4.17
2024-04-23T09:54:09.012Z,4.30
2024-04-23T09:55:09.002Z,4.35
2024-04-23T09:56:09.052Z,4.26
2024-04-23T09:57:08.946Z,4.12
2024-04-23T09:58:08.962Z,3.94
2024-04-23T09:59:08.965Z,3.74
2024-04-23T10:00:08.917Z,3.58
2024-04-23T10:01:08.970Z,3.50
2024-04-23T10:02:08.912Z,3.47
2024-04-23T10:03:10.013Z,3.47
2024-04-23T10:04:08.982Z,3.51
2024-04-23T10:05:09.410Z,3.56
2024-04-23T10:06:08.844Z,3.61
2024-04-23T10:07:08.840Z,3.61
2024-04-23T10:08:08.874Z,3.58
2024-04-23T10:09:08.796Z,3.44
2024-04-23T10:10:08.842Z,3.25
2024-04-23T10:11:08.807Z,3.11
2024-04-23T10:12:08.762Z,3.02
2024-04-23T10:13:08.752Z,2.97
2024-04-23T10:14:08.797Z,2.96
2024-04-23T10:15:08.735Z,2.97
2024-04-23T10:16:08.712Z,3.01
2024-04-23T10:17:08.811Z,3.07
2024-04-23T10:18:08.792Z,3.16
2024-04-23T10:19:08.674Z,3.25
2024-04-23T10:20:09.018Z,3.29
2024-04-23T10:21:08.649Z,3.25
2024-04-23T10:22:08.643Z,3.19
2024-04-23T10:23:08.694Z,3.20
2024-04-23T10:24:08.614Z,3.29
2024-04-23T10:25:08.601Z,3.40
2024-04-23T10:26:08.636Z,3.49
2024-04-23T10:27:08.587Z,3.56
2024-04-23T10:28:08.571Z,3.61
2024-04-23T10:29:08.601Z,3.63
2024-04-23T10:30:08.544Z,3.62
2024-04-23T10:31:08.509Z,3.66
2024-04-23T10:32:08.617Z,3.79
2024-04-23T10:33:08.554Z,3.90
2024-04-23T10:34:08.476Z,3.98
2024-04-23T10:35:08.472Z,4.01
2024-04-23T10:36:08.462Z,3.99
2024-04-23T10:37:08.431Z,4.00
2024-04-23T10:38:08.564Z,4.04
2024-04-23T10:39:08.411Z,4.08
2024-04-23T10:40:08.450Z,4.15
2024-04-23T10:41:08.488Z,4.21
2024-04-23T10:42:08.368Z,4.26
2024-04-23T10:43:08.376Z,4.38
2024-04-23T10:44:08.400Z,4.54
2024-04-23T10:45:08.393Z,4.59
2024-04-23T10:46:08.316Z,4.58
2024-04-23T10:47:08.385Z,4.59
2024-04-23T10:48:08.332Z,4.59
2024-04-23T10:49:08.311Z,4.53
2024-04-23T10:50:08.354Z,4.48
2024-04-23T10:51:08.266Z,4.48
2024-04-23T10:52:08.237Z,4.51
2024-04-23T10:53:08.361Z,4.51
2024-04-23T10:54:11.451Z,4.46
2024-04-23T10:55:08.227Z,4.42
2024-04-23T10:56:08.209Z,4.39
2024-04-23T10:57:08.173Z,4.37
2024-04-23T10:58:08.164Z,4.38
2024-04-23T10:59:08.204Z,4.40
2024-04-23T11:00:08.153Z,4.42
2024-04-23T11:01:08.282Z,4.40
2024-04-23T11:02:08.255Z,4.33
2024-04-23T11:03:08.233Z,4.23
2024-04-23T11:04:08.101Z,4.16
2024-04-23T11:05:08.240Z,4.11
2024-04-23T11:06:11.330Z,4.04
2024-04-23T11:07:08.069Z,4.00
2024-04-23T11:08:08.093Z,4.04
2024-04-23T11:09:08.012Z,4.10
2024-04-23T11:10:08.025Z,4.17
2024-04-23T11:11:08.116Z,4.28
2024-04-23T11:12:10.566Z,4.38
2024-04-23T11:13:07.964Z,4.41
2024-04-23T11:14:08.082Z,4.42
2024-04-23T11:15:07.953Z,4.43
2024-04-23T11:16:07.942Z,4.43
2024-04-23T11:17:08.017Z,4.40
2024-04-23T11:18:11.173Z,4.34
2024-04-23T11:19:08.013Z,4.28
2024-04-23T11:20:07.984Z,4.23
2024-04-23T11:21:07.873Z,4.20
2024-04-23T11:22:07.859Z,4.20
2024-04-23T11:23:07.885Z,4.20
2024-04-23T11:24:10.026Z,4.23
2024-04-23T11:25:07.813Z,4.28
2024-04-23T11:26:07.998Z,4.36
2024-04-23T11:27:07.825Z,4.43
2024-04-23T11:28:07.933Z,4.48
2024-04-23T11:29:07.889Z,4.60
2024-04-23T11:30:10.421Z,4.77
2024-04-23T11:31:07.728Z,4.91
2024-04-23T11:32:07.780Z,4.95
2024-04-23T11:33:07.876Z,4.90
2024-04-23T11:34:07.696Z,4.80
2024-04-23T11:35:08.068Z,4.66
2024-04-23T11:36:10.513Z,4.54
2024-04-23T11:37:07.655Z,4.45
2024-04-23T11:38:07.690Z,4.34
2024-04-23T11:39:07.674Z,4.20
2024-04-23T11:40:07.616Z,4.05
2024-04-23T11:41:07.632Z,3.98
2024-04-23T11:42:09.050Z,3.97
2024-04-23T11:43:07.811Z,3.95
2024-04-23T11:44:07.797Z,3.90
2024-04-23T11:45:07.560Z,3.84
2024-04-23T11:46:07.532Z,3.78
2024-04-23T11:47:07.582Z,3.71
2024-04-23T11:48:07.676Z,3.64
2024-04-23T11:49:07.540Z,3.57
2024-04-23T11:50:08.132Z,3.51
2024-04-23T11:51:07.460Z,3.42
2024-04-23T11:52:08.621Z,3.32
2024-04-23T11:53:07.527Z,3.23
2024-04-23T11:54:07.466Z,3.18
2024-04-23T11:55:07.482Z,3.15
2024-04-23T11:56:07.509Z,3.14
2024-04-23T11:57:07.389Z,3.13
2024-04-23T11:58:07.400Z,3.11
2024-04-23T11:59:07.397Z,3.08
2024-04-23T12:00:07.347Z,3.04
2024-04-23T12:01:07.450Z,3.00
2024-04-23T12:02:07.402Z,2.97
2024-04-23T12:03:07.300Z,2.96
2024-04-23T12:04:07.334Z,2.97
2024-04-23T12:05:07.445Z,2.97
2024-04-23T12:06:07.561Z,2.96
2024-04-23T12:07:07.285Z,2.95
2024-04-23T12:08:07.451Z,2.94
2024-04-23T12:09:07.239Z,2.95
2024-04-23T12:10:07.229Z,2.95
2024-04-23T12:11:07.337Z,2.95
2024-04-23T12:12:07.201Z,2.94
2024-04-23T12:13:07.229Z,2.94
2024-04-23T12:14:07.276Z,2.95
2024-04-23T12:15:07.436Z,2.98
2024-04-23T12:16:07.145Z,3.01
2024-04-23T12:17:07.203Z,3.06
2024-04-23T12:18:07.235Z,3.10
2024-04-23T12:19:07.123Z,3.11
2024-04-23T12:20:07.185Z,3.09
2024-04-23T12:21:07.075Z,3.09
2024-04-23T12:22:07.100Z,3.10
2024-04-23T12:23:07.182Z,3.10
2024-04-23T12:24:07.065Z,3.10
2024-04-23T12:25:07.045Z,3.12
2024-04-23T12:26:07.050Z,3.14
2024-04-23T12:27:07.000Z,3.12
2024-04-23T12:28:07.002Z,3.08
2024-04-23T12:29:07.022Z,3.07
2024-04-23T12:30:06.978Z,3.08
2024-04-23T12:31:06.935Z,3.06
2024-04-23T12:32:07.083Z,3.03
2024-04-23T12:33:06.989Z,3.02
2024-04-23T12:34:06.920Z,3.01
2024-04-23T12:35:06.952Z,2.98
2024-04-23T12:36:06.894Z,2.91
2024-04-23T12:37:06.877Z,2.82
2024-04-23T12:38:06.878Z,2.76
2024-04-23T12:39:06.866Z,2.70
2024-04-23T12:40:06.824Z,2.64
2024-04-23T12:41:06.941Z,2.58
2024-04-23T12:42:06.806Z,2.53
2024-04-23T12:43:06.840Z,2.47
2024-04-23T12:44:06.850Z,2.43
2024-04-23T12:45:06.779Z,2.37
2024-04-23T12:46:06.749Z,2.32
2024-04-23T12:47:06.856Z,2.27
2024-04-23T12:48:06.935Z,2.23
2024-04-23T12:49:06.804Z,2.21
2024-04-23T12:50:06.773Z,2.18
2024-04-23T12:51:06.688Z,2.16
2024-04-23T12:52:06.840Z,2.17
2024-04-23T12:53:06.709Z,2.19
2024-04-23T12:54:06.698Z,2.22
2024-04-23T12:55:06.643Z,2.27
2024-04-23T12:56:06.683Z,2.33
2024-04-23T12:57:06.610Z,2.42
2024-04-23T12:58:06.633Z,2.50
2024-04-23T12:59:06.628Z,2.54
2024-04-23T13:00:06.580Z,2.58
2024-04-23T13:01:06.616Z,2.65
2024-04-23T13:02:06.588Z,2.73
2024-04-23T13:03:06.819Z,2.83
2024-04-23T13:04:06.663Z,2.96
2024-04-23T13:05:06.595Z,3.11
2024-04-23T13:06:06.502Z,3.21
2024-04-23T13:07:06.480Z,3.29
2024-04-23T13:08:06.558Z,3.38